Time,TemperatureF,DewpointF,PressureIn,WindDirection,WindDirectionDegrees,WindSpeedMPH,WindSpeedGustMPH,Humidity,HourlyPrecipIn,Conditions,Clouds,dailyrainin,SoftwareType,DateUTC
2013-09-26 00:01:00,54.1,48.4,29.99,WNW,290,0.0,6.0,81,0.00,,,0.00,meteohub,2013-09-26 04:01:00,
2013-09-26 00:02:00,54.0,48.2,29.99,WNW,290,2.0,6.0,81,0.00,,,0.00,meteohub,2013-09-26 04:02:00,
2013-09-26 00:03:00,54.0,48.6,30.00,NW,316,3.0,6.0,82,0.00,,,0.00,meteohub,2013-09-26 04:03:00,
2013-09-26 00:08:00,54.0,48.0,29.99,NW,324,3.0,6.0,80,0.00,,,0.00,meteohub,2013-09-26 04:08:00,
2013-09-26 00:13:00,54.0,48.2,29.99,NNW,341,5.0,6.0,81,0.00,,,0.00,meteohub,2013-09-26 04:13:00,
2013-09-26 00:18:00,54.0,47.7,29.99,NW,305,1.0,6.0,79,0.00,,,0.00,meteohub,2013-09-26 04:18:00,
2013-09-26 00:23:00,54.0,48.0,30.00,North,9,3.0,6.0,80,0.00,,,0.00,meteohub,2013-09-26 04:23:00,
2013-09-26 00:28:00,53.8,47.1,30.00,NW,313,2.0,6.0,78,0.00,,,0.00,meteohub,2013-09-26 04:28:00,
2013-09-26 00:33:00,53.8,46.8,30.00,NNW,347,1.0,4.0,77,0.00,,,0.00,meteohub,2013-09-26 04:33:00,
2013-09-26 00:38:00,53.8,47.1,30.00,NNW,344,1.0,4.0,78,0.00,,,0.00,meteohub,2013-09-26 04:38:00,
2013-09-26 00:43:00,53.8,47.5,30.00,NNW,344,0.0,4.0,79,0.00,,,0.00,meteohub,2013-09-26 04:43:00,
2013-09-26 00:48:00,53.8,47.5,30.00,NNW,332,2.0,4.0,79,0.00,,,0.00,meteohub,2013-09-26 04:48:00,
2013-09-26 00:53:00,53.6,47.3,30.00,NNW,336,3.0,4.0,79,0.00,,,0.00,meteohub,2013-09-26 04:53:00,
2013-09-26 00:59:00,53.6,47.3,30.00,NNW,334,1.0,4.0,79,0.00,,,0.00,meteohub,2013-09-26 04:59:00,
2013-09-26 01:04:00,53.4,46.8,30.00,NNW,332,2.0,4.0,78,0.00,,,0.00,meteohub,2013-09-26 05:04:00,
2013-09-26 01:09:00,53.4,47.7,30.00,NNW,342,0.0,4.0,81,0.00,,,0.00,meteohub,2013-09-26 05:09:00,
2013-09-26 01:14:00,53.2,47.3,30.00,NNW,332,2.0,4.0,80,0.00,,,0.00,meteohub,2013-09-26 05:14:00,
2013-09-26 01:19:00,53.2,46.9,30.00,NW,324,3.0,4.0,79,0.00,,,0.00,meteohub,2013-09-26 05:19:00,
2013-09-26 01:24:00,53.2,47.5,30.01,NNW,335,3.0,7.0,81,0.00,,,0.00,meteohub,2013-09-26 05:24:00,
2013-09-26 01:29:00,53.1,47.1,30.01,NNW,328,2.0,7.0,80,0.00,,,0.00,meteohub,2013-09-26 05:29:00,
2013-09-26 01:34:00,52.9,46.6,30.01,NNW,344,2.0,7.0,79,0.00,,,0.00,meteohub,2013-09-26 05:34:00,
2013-09-26 01:39:00,52.9,47.3,30.01,NW,320,0.0,7.0,81,0.00,,,0.00,meteohub,2013-09-26 05:39:00,
2013-09-26 01:44:00,52.9,47.3,30.01,NW,325,2.0,6.0,81,0.00,,,0.00,meteohub,2013-09-26 05:44:00,
2013-09-26 01:49:00,52.7,46.8,30.01,WNW,295,0.0,6.0,80,0.00,,,0.00,meteohub,2013-09-26 05:49:00,
2013-09-26 01:54:00,52.5,47.1,30.01,NW,319,3.0,6.0,82,0.00,,,0.00,meteohub,2013-09-26 05:54:00,
2013-09-26 01:59:00,52.5,45.5,30.01,NW,312,3.0,6.0,77,0.00,,,0.00,meteohub,2013-09-26 05:59:00,
2013-09-26 02:04:00,52.3,45.7,30.00,NNW,344,1.0,6.0,78,0.00,,,0.00,meteohub,2013-09-26 06:04:00,
2013-09-26 02:09:00,52.3,46.0,30.00,NNW,347,1.0,6.0,79,0.00,,,0.00,meteohub,2013-09-26 06:09:00,
2013-09-26 02:14:00,52.3,46.4,30.00,NNW,347,0.0,6.0,80,0.00,,,0.00,meteohub,2013-09-26 06:14:00,
2013-09-26 02:19:00,52.3,46.4,30.00,NNW,347,0.0,3.0,80,0.00,,,0.00,meteohub,2013-09-26 06:19:00,
2013-09-26 02:24:00,52.3,46.4,30.01,NNW,347,0.0,3.0,80,0.00,,,0.00,meteohub,2013-09-26 06:24:00,
2013-09-26 02:29:00,52.2,45.9,30.00,NNW,347,1.0,2.0,79,0.00,,,0.00,meteohub,2013-09-26 06:29:00,
2013-09-26 02:34:00,52.2,47.1,30.00,NNW,348,2.0,2.0,83,0.00,,,0.00,meteohub,2013-09-26 06:34:00,
2013-09-26 02:39:00,52.0,46.0,30.01,NNW,327,2.0,3.0,80,0.00,,,0.00,meteohub,2013-09-26 06:39:00,
2013-09-26 02:44:00,52.0,46.0,30.01,NNW,327,0.0,4.0,80,0.00,,,0.00,meteohub,2013-09-26 06:44:00,
2013-09-26 02:49:00,51.6,45.7,30.01,NNW,327,0.0,4.0,80,0.00,,,0.00,meteohub,2013-09-26 06:49:00,
2013-09-26 02:54:00,51.6,46.2,30.01,NNW,327,0.0,4.0,82,0.00,,,0.00,meteohub,2013-09-26 06:54:00,
2013-09-26 02:59:00,51.4,46.2,30.01,NNW,332,1.0,2.0,82,0.00,,,0.00,meteohub,2013-09-26 06:59:00,
2013-09-26 03:04:00,51.4,46.4,30.01,NNW,333,1.0,2.0,83,0.00,,,0.00,meteohub,2013-09-26 07:04:00,
2013-09-26 03:09:00,51.4,46.2,30.01,NNW,333,0.0,2.0,82,0.00,,,0.00,meteohub,2013-09-26 07:09:00,
2013-09-26 03:14:00,51.4,46.2,30.01,NNW,333,0.0,2.0,82,0.00,,,0.00,meteohub,2013-09-26 07:14:00,
2013-09-26 03:19:00,51.4,46.2,30.01,NNW,333,2.0,2.0,82,0.00,,,0.00,meteohub,2013-09-26 07:19:00,
2013-09-26 03:24:00,51.4,46.2,30.01,NNW,334,1.0,2.0,82,0.00,,,0.00,meteohub,2013-09-26 07:24:00,
2013-09-26 03:29:00,51.4,46.2,30.01,NNW,333,0.0,2.0,82,0.00,,,0.00,meteohub,2013-09-26 07:29:00,
2013-09-26 03:34:00,51.4,46.2,30.01,NNW,333,0.0,2.0,82,0.00,,,0.00,meteohub,2013-09-26 07:34:00,
2013-09-26 03:40:00,51.4,46.4,30.02,NNW,333,0.0,2.0,83,0.00,,,0.00,meteohub,2013-09-26 07:40:00,
2013-09-26 03:45:00,51.3,46.0,30.01,NNW,334,1.0,2.0,82,0.00,,,0.00,meteohub,2013-09-26 07:45:00,
2013-09-26 03:50:00,51.3,46.9,30.01,North,0,0.0,2.0,85,0.00,,,0.00,meteohub,2013-09-26 07:50:00,
2013-09-26 03:54:00,51.3,46.6,30.01,NW,324,0.0,2.0,84,0.00,,,0.00,meteohub,2013-09-26 07:54:00,
2013-09-26 04:01:00,51.1,46.0,30.01,NW,324,0.0,3.0,83,0.00,,,0.00,meteohub,2013-09-26 08:01:00,
2013-09-26 04:06:00,50.5,45.9,30.01,NW,324,1.0,3.0,84,0.00,,,0.00,meteohub,2013-09-26 08:06:00,
2013-09-26 04:11:00,50.2,45.5,30.01,NW,324,0.0,2.0,84,0.00,,,0.00,meteohub,2013-09-26 08:11:00,
2013-09-26 04:16:00,49.8,45.1,30.01,NW,324,0.0,2.0,84,0.00,,,0.00,meteohub,2013-09-26 08:16:00,
2013-09-26 04:21:00,49.5,45.1,30.01,NW,324,0.0,2.0,85,0.00,,,0.00,meteohub,2013-09-26 08:21:00,
2013-09-26 04:26:00,49.1,45.1,30.01,NW,324,0.0,0.0,86,0.00,,,0.00,meteohub,2013-09-26 08:26:00,
2013-09-26 04:31:00,48.7,44.8,30.01,NW,324,0.0,0.0,86,0.00,,,0.00,meteohub,2013-09-26 08:31:00,
2013-09-26 04:36:00,48.4,44.4,30.01,NW,324,0.0,0.0,86,0.00,,,0.00,meteohub,2013-09-26 08:36:00,
2013-09-26 04:41:00,48.0,44.4,30.01,NW,324,0.0,0.0,87,0.00,,,0.00,meteohub,2013-09-26 08:41:00,
2013-09-26 04:46:00,47.7,44.1,30.01,NW,324,0.0,0.0,87,0.00,,,0.00,meteohub,2013-09-26 08:46:00,
2013-09-26 04:51:00,47.3,43.9,30.01,NW,324,0.0,0.0,88,0.00,,,0.00,meteohub,2013-09-26 08:51:00,
2013-09-26 04:56:00,46.9,43.5,30.02,NW,324,0.0,0.0,88,0.00,,,0.00,meteohub,2013-09-26 08:56:00,
2013-09-26 05:01:00,46.6,43.2,30.02,NW,324,0.0,0.0,88,0.00,,,0.00,meteohub,2013-09-26 09:01:00,
2013-09-26 05:06:00,46.4,43.3,30.02,NW,324,0.0,0.0,89,0.00,,,0.00,meteohub,2013-09-26 09:06:00,
2013-09-26 05:11:00,46.0,43.3,30.02,NW,324,0.0,0.0,90,0.00,,,0.00,meteohub,2013-09-26 09:11:00,
2013-09-26 05:16:00,45.9,43.2,30.02,NW,324,0.0,0.0,90,0.00,,,0.00,meteohub,2013-09-26 09:16:00,
2013-09-26 05:21:00,45.7,43.0,30.02,NW,324,0.0,0.0,90,0.00,,,0.00,meteohub,2013-09-26 09:21:00,
2013-09-26 05:26:00,45.3,42.6,30.02,NW,324,0.0,0.0,90,0.00,,,0.00,meteohub,2013-09-26 09:26:00,
2013-09-26 05:31:00,45.1,42.6,30.02,NW,324,0.0,0.0,91,0.00,,,0.00,meteohub,2013-09-26 09:31:00,
2013-09-26 05:36:00,45.0,42.4,30.02,NW,324,0.0,0.0,91,0.00,,,0.00,meteohub,2013-09-26 09:36:00,
2013-09-26 05:41:00,44.8,42.3,30.02,NW,324,0.0,0.0,91,0.00,,,0.00,meteohub,2013-09-26 09:41:00,
2013-09-26 05:46:00,44.6,42.1,30.02,NW,324,0.0,0.0,91,0.00,,,0.00,meteohub,2013-09-26 09:46:00,
2013-09-26 05:51:00,44.4,42.3,30.02,NW,324,0.0,0.0,92,0.00,,,0.00,meteohub,2013-09-26 09:51:00,
2013-09-26 05:56:00,44.4,42.3,30.03,NW,324,0.0,0.0,92,0.00,,,0.00,meteohub,2013-09-26 09:56:00,
2013-09-26 06:01:00,44.2,42.3,30.03,NW,324,0.0,0.0,93,0.00,,,0.00,meteohub,2013-09-26 10:01:00,
2013-09-26 06:06:00,44.4,42.4,30.03,NW,324,0.0,0.0,93,0.00,,,0.00,meteohub,2013-09-26 10:06:00,
2013-09-26 06:11:00,44.4,42.4,30.03,NW,324,0.0,0.0,93,0.00,,,0.00,meteohub,2013-09-26 10:11:00,
2013-09-26 06:16:00,44.4,42.8,30.03,NW,324,0.0,0.0,94,0.00,,,0.00,meteohub,2013-09-26 10:16:00,
2013-09-26 06:21:00,44.4,42.8,30.03,NW,324,0.0,1.0,94,0.00,,,0.00,meteohub,2013-09-26 10:21:00,
2013-09-26 06:26:00,44.6,43.0,30.03,NW,324,0.0,2.0,94,0.00,,,0.00,meteohub,2013-09-26 10:26:00,
2013-09-26 06:31:00,44.8,43.2,30.03,NW,324,0.0,2.0,94,0.00,,,0.00,meteohub,2013-09-26 10:31:00,
2013-09-26 06:36:00,44.8,43.2,30.03,NW,324,0.0,2.0,94,0.00,,,0.00,meteohub,2013-09-26 10:36:00,
2013-09-26 06:41:00,44.8,43.2,30.03,NW,324,0.0,2.0,94,0.00,,,0.00,meteohub,2013-09-26 10:41:00,
2013-09-26 06:46:00,44.4,42.4,30.04,NW,324,0.0,2.0,93,0.00,,,0.00,meteohub,2013-09-26 10:46:00,
2013-09-26 06:51:00,44.2,42.3,30.04,NW,324,0.0,1.0,93,0.00,,,0.00,meteohub,2013-09-26 10:51:00,
2013-09-26 06:56:00,44.1,42.1,30.04,NW,324,0.0,1.0,93,0.00,,,0.00,meteohub,2013-09-26 10:56:00,
2013-09-26 07:01:00,43.9,41.9,30.04,NW,324,0.0,1.0,93,0.00,,,0.00,meteohub,2013-09-26 11:01:00,
2013-09-26 07:06:00,43.9,42.3,30.04,NW,324,0.0,1.0,94,0.00,,,0.00,meteohub,2013-09-26 11:06:00,
2013-09-26 07:11:00,43.9,42.3,30.04,NW,324,0.0,0.0,94,0.00,,,0.00,meteohub,2013-09-26 11:11:00,
2013-09-26 07:16:00,43.9,42.3,30.04,NW,324,0.0,0.0,94,0.00,,,0.00,meteohub,2013-09-26 11:16:00,
2013-09-26 07:21:00,44.1,42.4,30.04,NW,324,0.0,0.0,94,0.00,,,0.00,meteohub,2013-09-26 11:21:00,
2013-09-26 07:26:00,44.1,42.4,30.05,NW,324,0.0,0.0,94,0.00,,,0.00,meteohub,2013-09-26 11:26:00,
2013-09-26 07:31:00,44.2,42.6,30.05,NW,324,0.0,0.0,94,0.00,,,0.00,meteohub,2013-09-26 11:31:00,
2013-09-26 07:36:00,44.4,43.2,30.05,NW,324,0.0,0.0,95,0.00,,,0.00,meteohub,2013-09-26 11:36:00,
2013-09-26 07:41:00,44.6,43.3,30.05,NW,324,0.0,1.0,95,0.00,,,0.00,meteohub,2013-09-26 11:41:00,
2013-09-26 07:46:00,44.8,43.5,30.05,NW,324,0.0,1.0,95,0.00,,,0.00,meteohub,2013-09-26 11:46:00,
2013-09-26 07:51:00,45.1,43.9,30.05,NW,324,0.0,1.0,95,0.00,,,0.00,meteohub,2013-09-26 11:51:00,
2013-09-26 07:56:00,45.3,43.7,30.05,NW,324,0.0,1.0,94,0.00,,,0.00,meteohub,2013-09-26 11:56:00,
2013-09-26 08:01:00,45.7,44.4,30.05,NW,324,1.0,1.0,95,0.00,,,0.00,meteohub,2013-09-26 12:01:00,
2013-09-26 08:06:00,45.9,44.2,30.05,NW,324,1.0,2.0,94,0.00,,,0.00,meteohub,2013-09-26 12:06:00,
2013-09-26 08:11:00,46.0,44.4,30.05,NW,325,1.0,2.0,94,0.00,,,0.00,meteohub,2013-09-26 12:11:00,
2013-09-26 08:16:00,46.2,44.6,30.05,NW,325,1.0,2.0,94,0.00,,,0.00,meteohub,2013-09-26 12:16:00,
2013-09-26 08:21:00,46.6,45.0,30.05,NW,325,0.0,2.0,94,0.00,,,0.00,meteohub,2013-09-26 12:21:00,
2013-09-26 08:26:00,46.8,45.1,30.06,NW,325,0.0,2.0,94,0.00,,,0.00,meteohub,2013-09-26 12:26:00,
2013-09-26 08:31:00,47.1,45.5,30.06,NW,325,0.0,1.0,94,0.00,,,0.00,meteohub,2013-09-26 12:31:00,
2013-09-26 08:36:00,47.3,45.3,30.06,NW,325,0.0,1.0,93,0.00,,,0.00,meteohub,2013-09-26 12:36:00,
2013-09-26 08:41:00,47.7,45.7,30.06,NW,325,0.0,1.0,93,0.00,,,0.00,meteohub,2013-09-26 12:41:00,
2013-09-26 08:46:00,48.0,45.9,30.06,NW,325,0.0,1.0,92,0.00,,,0.00,meteohub,2013-09-26 12:46:00,
2013-09-26 08:51:00,48.4,46.2,30.06,NW,325,0.0,1.0,92,0.00,,,0.00,meteohub,2013-09-26 12:51:00,
2013-09-26 08:56:00,48.7,46.2,30.06,NW,325,0.0,0.0,91,0.00,,,0.00,meteohub,2013-09-26 12:56:00,
2013-09-26 09:01:00,49.3,46.4,30.06,NW,325,0.0,0.0,90,0.00,,,0.00,meteohub,2013-09-26 13:01:00,
2013-09-26 09:06:00,49.6,45.9,30.06,NW,325,0.0,2.0,87,0.00,,,0.00,meteohub,2013-09-26 13:06:00,
2013-09-26 09:11:00,50.0,46.0,30.06,NW,325,0.0,2.0,86,0.00,,,0.00,meteohub,2013-09-26 13:11:00,
2013-09-26 09:16:00,50.5,45.9,30.06,NNW,346,1.0,3.0,84,0.00,,,0.00,meteohub,2013-09-26 13:16:00,
2013-09-26 09:22:00,51.3,45.7,30.06,NNW,347,1.0,3.0,81,0.00,,,0.00,meteohub,2013-09-26 13:22:00,
2013-09-26 09:27:00,51.6,46.0,30.06,NNW,338,4.0,4.0,81,0.00,,,0.00,meteohub,2013-09-26 13:27:00,
2013-09-26 09:32:00,52.0,45.7,30.06,NW,326,4.0,6.0,79,0.00,,,0.00,meteohub,2013-09-26 13:32:00,
2013-09-26 09:37:00,52.3,45.3,30.06,NNW,334,4.0,6.0,77,0.00,,,0.00,meteohub,2013-09-26 13:37:00,
2013-09-26 09:42:00,52.5,45.1,30.06,NW,322,3.0,6.0,76,0.00,,,0.00,meteohub,2013-09-26 13:42:00,
2013-09-26 09:47:00,52.9,45.9,30.06,NNW,328,1.0,5.0,77,0.00,,,0.00,meteohub,2013-09-26 13:47:00,
2013-09-26 09:52:00,53.2,45.1,30.06,SW,232,1.0,6.0,74,0.00,,,0.00,meteohub,2013-09-26 13:52:00,
2013-09-26 09:57:00,53.8,45.7,30.06,NNW,348,2.0,8.0,74,0.00,,,0.00,meteohub,2013-09-26 13:57:00,
2013-09-26 10:02:00,54.1,46.0,30.06,NNW,337,2.0,8.0,74,0.00,,,0.00,meteohub,2013-09-26 14:02:00,
2013-09-26 10:07:00,54.3,45.9,30.06,NNW,331,0.0,7.0,73,0.00,,,0.00,meteohub,2013-09-26 14:07:00,
2013-09-26 10:12:00,54.3,45.9,30.06,WNW,303,3.0,7.0,73,0.00,,,0.00,meteohub,2013-09-26 14:12:00,
2013-09-26 10:17:00,54.3,45.5,30.06,NNW,339,5.0,7.0,72,0.00,,,0.00,meteohub,2013-09-26 14:17:00,
2013-09-26 10:22:00,54.3,45.9,30.07,NNW,337,7.0,10.0,73,0.00,,,0.00,meteohub,2013-09-26 14:22:00,
2013-09-26 10:27:00,54.3,45.5,30.07,NNW,345,5.0,10.0,72,0.00,,,0.00,meteohub,2013-09-26 14:27:00,
2013-09-26 10:32:00,54.3,45.5,30.07,WNW,286,3.0,10.0,72,0.00,,,0.00,meteohub,2013-09-26 14:32:00,
2013-09-26 10:37:00,54.5,45.7,30.06,NNW,337,0.0,9.0,72,0.00,,,0.00,meteohub,2013-09-26 14:37:00,
2013-09-26 10:42:00,54.9,46.4,30.06,NNE,23,1.0,8.0,73,0.00,,,0.00,meteohub,2013-09-26 14:42:00,
2013-09-26 10:47:00,55.0,46.2,30.07,NW,311,7.0,8.0,72,0.00,,,0.00,meteohub,2013-09-26 14:47:00,
2013-09-26 10:52:00,55.0,46.2,30.07,NW,306,2.0,10.0,72,0.00,,,0.00,meteohub,2013-09-26 14:52:00,
2013-09-26 10:57:00,55.2,45.7,30.07,NNW,345,4.0,10.0,70,0.00,,,0.00,meteohub,2013-09-26 14:57:00,
2013-09-26 11:02:00,55.0,46.2,30.07,NW,312,4.0,10.0,72,0.00,,,0.00,meteohub,2013-09-26 15:02:00,
2013-09-26 11:07:00,54.9,46.4,30.07,NNW,328,3.0,7.0,73,0.00,,,0.00,meteohub,2013-09-26 15:07:00,
2013-09-26 11:12:00,54.9,46.4,30.07,NNW,332,1.0,7.0,73,0.00,,,0.00,meteohub,2013-09-26 15:12:00,
2013-09-26 11:17:00,55.2,46.8,30.07,ESE,114,5.0,7.0,73,0.00,,,0.00,meteohub,2013-09-26 15:17:00,
2013-09-26 11:22:00,55.6,46.0,30.07,NNW,331,1.0,6.0,70,0.00,,,0.00,meteohub,2013-09-26 15:22:00,
2013-09-26 11:27:00,55.8,46.9,30.07,NNW,347,5.0,10.0,72,0.00,,,0.00,meteohub,2013-09-26 15:27:00,
2013-09-26 11:32:00,55.6,46.4,30.07,NNW,347,4.0,10.0,71,0.00,,,0.00,meteohub,2013-09-26 15:32:00,
2013-09-26 11:37:00,55.6,47.8,30.07,NW,320,5.0,10.0,75,0.00,,,0.00,meteohub,2013-09-26 15:37:00,
2013-09-26 11:42:00,55.6,46.4,30.07,West,261,1.0,7.0,71,0.00,,,0.00,meteohub,2013-09-26 15:42:00,
2013-09-26 11:47:00,55.8,46.9,30.07,NW,311,0.0,7.0,72,0.00,,,0.00,meteohub,2013-09-26 15:47:00,
2013-09-26 11:52:00,55.8,46.9,30.07,NNW,329,4.0,9.0,72,0.00,,,0.00,meteohub,2013-09-26 15:52:00,
2013-09-26 11:57:00,55.6,46.0,30.07,NNW,328,4.0,9.0,70,0.00,,,0.00,meteohub,2013-09-26 15:57:00,
2013-09-26 12:02:00,55.4,46.2,30.07,NNW,333,5.0,9.0,71,0.00,,,0.00,meteohub,2013-09-26 16:02:00,
2013-09-26 12:07:00,55.6,47.1,30.07,NNW,328,8.0,9.0,73,0.00,,,0.00,meteohub,2013-09-26 16:07:00,
2013-09-26 12:12:00,55.8,46.9,30.07,WNW,282,0.0,9.0,72,0.00,,,0.00,meteohub,2013-09-26 16:12:00,
2013-09-26 12:17:00,56.1,46.8,30.06,NNE,14,3.0,9.0,71,0.00,,,0.00,meteohub,2013-09-26 16:17:00,
2013-09-26 12:22:00,56.5,47.5,30.07,NW,312,1.0,9.0,72,0.00,,,0.00,meteohub,2013-09-26 16:22:00,
2013-09-26 12:27:00,56.5,46.8,30.07,NNW,347,3.0,9.0,70,0.00,,,0.00,meteohub,2013-09-26 16:27:00,
2013-09-26 12:32:00,56.3,46.6,30.06,NNW,330,4.0,9.0,70,0.00,,,0.00,meteohub,2013-09-26 16:32:00,
2013-09-26 12:37:00,56.7,46.9,30.07,NNW,334,3.0,9.0,70,0.00,,,0.00,meteohub,2013-09-26 16:37:00,
2013-09-26 12:42:00,56.7,46.9,30.06,NW,316,5.0,9.0,70,0.00,,,0.00,meteohub,2013-09-26 16:42:00,
2013-09-26 12:47:00,56.7,47.3,30.06,North,356,4.0,9.0,71,0.00,,,0.00,meteohub,2013-09-26 16:47:00,
2013-09-26 12:52:00,57.0,46.6,30.06,NNW,343,3.0,9.0,68,0.00,,,0.00,meteohub,2013-09-26 16:52:00,
2013-09-26 12:58:00,57.4,47.3,30.06,NW,326,5.0,9.0,69,0.00,,,0.00,meteohub,2013-09-26 16:58:00,
2013-09-26 13:03:00,57.2,47.1,30.06,NW,319,2.0,9.0,69,0.00,,,0.00,meteohub,2013-09-26 17:03:00,
2013-09-26 13:08:00,57.6,47.1,30.06,WNW,299,5.0,9.0,68,0.00,,,0.00,meteohub,2013-09-26 17:08:00,
2013-09-26 13:13:00,57.6,47.8,30.06,NNW,339,4.0,8.0,70,0.00,,,0.00,meteohub,2013-09-26 17:13:00,
2013-09-26 13:18:00,57.9,47.5,30.06,NNW,338,2.0,8.0,68,0.00,,,0.00,meteohub,2013-09-26 17:18:00,
2013-09-26 13:23:00,57.9,46.9,30.06,NNW,338,2.0,8.0,67,0.00,,,0.00,meteohub,2013-09-26 17:23:00,
2013-09-26 13:28:00,57.9,48.2,30.06,NW,315,6.0,7.0,70,0.00,,,0.00,meteohub,2013-09-26 17:28:00,
2013-09-26 13:33:00,57.7,47.3,30.06,NNW,342,3.0,8.0,68,0.00,,,0.00,meteohub,2013-09-26 17:33:00,
2013-09-26 13:38:00,57.9,47.5,30.06,NNW,336,4.0,8.0,68,0.00,,,0.00,meteohub,2013-09-26 17:38:00,
2013-09-26 13:44:00,57.9,46.6,30.06,NW,318,5.0,8.0,66,0.00,,,0.00,meteohub,2013-09-26 17:44:00,
2013-09-26 13:49:00,58.1,46.8,30.06,NNW,330,4.0,8.0,66,0.00,,,0.00,meteohub,2013-09-26 17:49:00,
2013-09-26 13:54:00,58.5,48.4,30.06,NW,322,5.0,7.0,69,0.00,,,0.00,meteohub,2013-09-26 17:54:00,
2013-09-26 13:59:00,58.8,47.8,30.06,NNW,345,4.0,10.0,67,0.00,,,0.00,meteohub,2013-09-26 17:59:00,
2013-09-26 14:05:00,59.4,48.4,30.06,NNW,332,3.0,10.0,67,0.00,,,0.00,meteohub,2013-09-26 18:05:00,
2013-09-26 14:10:00,59.4,48.4,30.05,NNW,344,2.0,7.0,67,0.00,,,0.00,meteohub,2013-09-26 18:10:00,
2013-09-26 14:15:00,59.7,47.5,30.05,North,8,2.0,7.0,64,0.00,,,0.00,meteohub,2013-09-26 18:15:00,
2013-09-26 14:20:00,60.1,48.2,30.05,NW,307,5.0,7.0,65,0.00,,,0.00,meteohub,2013-09-26 18:20:00,
2013-09-26 14:25:00,60.1,48.7,30.05,NW,316,5.0,7.0,66,0.00,,,0.00,meteohub,2013-09-26 18:25:00,
2013-09-26 14:30:00,60.3,48.4,30.05,NNW,340,3.0,9.0,65,0.00,,,0.00,meteohub,2013-09-26 18:30:00,
2013-09-26 14:35:00,60.4,48.2,30.05,NNW,345,3.0,9.0,64,0.00,,,0.00,meteohub,2013-09-26 18:35:00,
2013-09-26 14:40:00,60.8,47.7,30.05,NW,312,0.0,9.0,62,0.00,,,0.00,meteohub,2013-09-26 18:40:00,
2013-09-26 14:45:00,61.2,48.9,30.05,NNW,330,4.0,7.0,64,0.00,,,0.00,meteohub,2013-09-26 18:45:00,
2013-09-26 14:50:00,61.2,48.0,30.05,NW,319,3.0,6.0,62,0.00,,,0.00,meteohub,2013-09-26 18:50:00,
2013-09-26 14:55:00,61.3,49.1,30.04,NNW,346,1.0,6.0,64,0.00,,,0.00,meteohub,2013-09-26 18:55:00,
2013-09-26 15:00:00,61.5,48.4,30.05,NW,307,5.0,6.0,62,0.00,,,0.00,meteohub,2013-09-26 19:00:00,
2013-09-26 15:05:00,61.9,49.1,30.04,NNW,331,3.0,7.0,63,0.00,,,0.00,meteohub,2013-09-26 19:05:00,
2013-09-26 15:11:00,61.9,49.1,30.04,NNW,332,3.0,7.0,63,0.00,,,0.00,meteohub,2013-09-26 19:11:00,
2013-09-26 15:16:00,61.5,50.0,30.04,NW,320,2.0,9.0,66,0.00,,,0.00,meteohub,2013-09-26 19:16:00,
2013-09-26 15:21:00,61.9,49.1,30.04,NNW,343,2.0,9.0,63,0.00,,,0.00,meteohub,2013-09-26 19:21:00,
2013-09-26 15:26:00,62.1,48.4,30.04,NNW,339,2.0,9.0,61,0.00,,,0.00,meteohub,2013-09-26 19:26:00,
2013-09-26 15:31:00,62.2,49.5,30.04,NNW,328,3.0,5.0,63,0.00,,,0.00,meteohub,2013-09-26 19:31:00,
2013-09-26 15:36:00,62.1,48.4,30.04,North,351,1.0,7.0,61,0.00,,,0.00,meteohub,2013-09-26 19:36:00,
2013-09-26 15:41:00,62.4,49.6,30.04,NNW,347,3.0,7.0,63,0.00,,,0.00,meteohub,2013-09-26 19:41:00,
2013-09-26 15:46:00,62.6,48.9,30.04,WNW,300,0.0,6.0,61,0.00,,,0.00,meteohub,2013-09-26 19:46:00,
2013-09-26 15:51:00,62.8,50.0,30.04,North,349,4.0,5.0,63,0.00,,,0.00,meteohub,2013-09-26 19:51:00,
2013-09-26 15:56:00,63.0,50.2,30.04,NNW,343,4.0,6.0,63,0.00,,,0.00,meteohub,2013-09-26 19:56:00,
2013-09-26 16:01:00,63.0,48.9,30.04,NNW,340,3.0,6.0,60,0.00,,,0.00,meteohub,2013-09-26 20:01:00,
2013-09-26 16:06:00,63.0,50.2,30.04,NNW,340,2.0,6.0,63,0.00,,,0.00,meteohub,2013-09-26 20:06:00,
2013-09-26 16:11:00,63.1,49.8,30.04,North,355,1.0,6.0,62,0.00,,,0.00,meteohub,2013-09-26 20:11:00,
2013-09-26 16:16:00,63.1,50.4,30.04,NW,318,6.0,6.0,63,0.00,,,0.00,meteohub,2013-09-26 20:16:00,
2013-09-26 16:21:00,63.1,50.4,30.04,NNW,338,1.0,7.0,63,0.00,,,0.00,meteohub,2013-09-26 20:21:00,
2013-09-26 16:26:00,63.0,49.8,30.04,NNW,341,3.0,7.0,62,0.00,,,0.00,meteohub,2013-09-26 20:26:00,
2013-09-26 16:31:00,63.0,50.5,30.04,NNW,334,3.0,7.0,64,0.00,,,0.00,meteohub,2013-09-26 20:31:00,
2013-09-26 16:36:00,63.1,50.4,30.04,NNW,331,4.0,7.0,63,0.00,,,0.00,meteohub,2013-09-26 20:36:00,
2013-09-26 16:41:00,63.1,49.8,30.04,NNW,345,2.0,6.0,62,0.00,,,0.00,meteohub,2013-09-26 20:41:00,
2013-09-26 16:46:00,63.1,49.8,30.04,NNW,334,3.0,6.0,62,0.00,,,0.00,meteohub,2013-09-26 20:46:00,
2013-09-26 16:51:00,63.0,51.1,30.04,NNW,330,4.0,6.0,65,0.00,,,0.00,meteohub,2013-09-26 20:51:00,
2013-09-26 16:56:00,62.8,50.0,30.05,NNW,346,2.0,6.0,63,0.00,,,0.00,meteohub,2013-09-26 20:56:00,
2013-09-26 17:01:00,62.8,50.4,30.05,NNW,337,2.0,6.0,64,0.00,,,0.00,meteohub,2013-09-26 21:01:00,
2013-09-26 17:06:00,62.8,50.9,30.05,NNW,330,4.0,6.0,65,0.00,,,0.00,meteohub,2013-09-26 21:06:00,
2013-09-26 17:11:00,62.6,49.8,30.05,North,349,1.0,6.0,63,0.00,,,0.00,meteohub,2013-09-26 21:11:00,
2013-09-26 17:16:00,62.2,50.0,30.05,NNW,341,1.0,5.0,64,0.00,,,0.00,meteohub,2013-09-26 21:16:00,
2013-09-26 17:21:00,61.9,50.0,30.05,NNW,330,3.0,5.0,65,0.00,,,0.00,meteohub,2013-09-26 21:21:00,
2013-09-26 17:27:00,61.3,49.5,30.05,NNW,337,3.0,5.0,65,0.00,,,0.00,meteohub,2013-09-26 21:27:00,
2013-09-26 17:32:00,61.0,50.4,30.06,NW,320,3.0,5.0,68,0.00,,,0.00,meteohub,2013-09-26 21:32:00,
2013-09-26 17:37:00,60.6,50.7,30.06,NNW,334,2.0,5.0,70,0.00,,,0.00,meteohub,2013-09-26 21:37:00,
2013-09-26 17:42:00,60.3,50.9,30.06,NNW,335,2.0,5.0,71,0.00,,,0.00,meteohub,2013-09-26 21:42:00,
2013-09-26 17:47:00,59.9,52.0,30.06,NNW,336,1.0,4.0,75,0.00,,,0.00,meteohub,2013-09-26 21:47:00,
2013-09-26 17:52:00,59.5,50.5,30.06,NNW,336,2.0,3.0,72,0.00,,,0.00,meteohub,2013-09-26 21:52:00,
2013-09-26 17:57:00,59.2,50.2,30.06,NNW,335,1.0,3.0,72,0.00,,,0.00,meteohub,2013-09-26 21:57:00,
2013-09-26 18:02:00,58.8,50.2,30.06,NNW,331,3.0,3.0,73,0.00,,,0.00,meteohub,2013-09-26 22:02:00,
2013-09-26 18:07:00,58.5,50.9,30.07,NNW,332,2.0,3.0,76,0.00,,,0.00,meteohub,2013-09-26 22:07:00,
2013-09-26 18:12:00,58.3,50.4,30.07,NNW,331,0.0,3.0,75,0.00,,,0.00,meteohub,2013-09-26 22:12:00,
2013-09-26 18:17:00,57.9,50.7,30.07,NNW,339,1.0,3.0,77,0.00,,,0.00,meteohub,2013-09-26 22:17:00,
2013-09-26 18:22:00,57.6,51.1,30.07,NNW,339,1.0,3.0,79,0.00,,,0.00,meteohub,2013-09-26 22:22:00,
2013-09-26 18:27:00,57.2,50.7,30.08,NNW,339,0.0,3.0,79,0.00,,,0.00,meteohub,2013-09-26 22:27:00,
2013-09-26 18:32:00,56.8,50.0,30.08,NNW,339,0.0,2.0,78,0.00,,,0.00,meteohub,2013-09-26 22:32:00,
2013-09-26 18:37:00,56.7,50.2,30.08,NNW,339,0.0,2.0,79,0.00,,,0.00,meteohub,2013-09-26 22:37:00,
2013-09-26 18:42:00,56.1,49.6,30.08,NNW,339,0.0,0.0,79,0.00,,,0.00,meteohub,2013-09-26 22:42:00,
2013-09-26 18:47:00,55.9,50.2,30.08,NNW,339,0.0,0.0,81,0.00,,,0.00,meteohub,2013-09-26 22:47:00,
2013-09-26 18:52:00,55.4,50.4,30.09,NNW,339,0.0,2.0,83,0.00,,,0.00,meteohub,2013-09-26 22:52:00,
2013-09-26 18:57:00,55.0,50.4,30.09,NNW,339,0.0,2.0,84,0.00,,,0.00,meteohub,2013-09-26 22:57:00,
2013-09-26 19:02:00,54.7,50.5,30.09,NNW,339,0.0,2.0,86,0.00,,,0.00,meteohub,2013-09-26 23:02:00,
2013-09-26 19:07:00,54.3,50.5,30.09,NNW,339,0.0,2.0,87,0.00,,,0.00,meteohub,2013-09-26 23:07:00,
2013-09-26 19:12:00,54.1,50.4,30.09,NNW,342,2.0,2.0,87,0.00,,,0.00,meteohub,2013-09-26 23:12:00,
2013-09-26 19:17:00,54.1,50.4,30.09,NNW,344,2.0,3.0,87,0.00,,,0.00,meteohub,2013-09-26 23:17:00,
2013-09-26 19:22:00,54.0,50.2,30.10,NNW,338,1.0,3.0,87,0.00,,,0.00,meteohub,2013-09-26 23:22:00,
2013-09-26 19:27:00,54.0,50.5,30.10,NNW,336,3.0,3.0,88,0.00,,,0.00,meteohub,2013-09-26 23:27:00,
2013-09-26 19:32:00,54.0,49.8,30.10,NW,304,2.0,6.0,86,0.00,,,0.00,meteohub,2013-09-26 23:32:00,
2013-09-26 19:37:00,54.1,49.8,30.10,NW,305,3.0,6.0,85,0.00,,,0.00,meteohub,2013-09-26 23:37:00,
2013-09-26 19:42:00,54.3,49.8,30.11,North,353,3.0,6.0,85,0.00,,,0.00,meteohub,2013-09-26 23:42:00,
2013-09-26 19:47:00,54.3,49.6,30.11,NNW,340,3.0,6.0,84,0.00,,,0.00,meteohub,2013-09-26 23:47:00,
2013-09-26 19:52:00,54.7,49.6,30.11,NNW,348,3.0,6.0,83,0.00,,,0.00,meteohub,2013-09-26 23:52:00,
2013-09-26 19:57:00,54.7,49.6,30.11,NW,324,4.0,6.0,83,0.00,,,0.00,meteohub,2013-09-26 23:57:00,
2013-09-26 20:02:00,54.9,49.8,30.12,NW,322,2.0,7.0,83,0.00,,,0.00,meteohub,2013-09-27 00:02:00,
2013-09-26 20:07:00,54.9,49.8,30.12,NW,324,3.0,7.0,83,0.00,,,0.00,meteohub,2013-09-27 00:07:00,
2013-09-26 20:12:00,54.9,49.8,30.12,NNW,336,3.0,7.0,83,0.00,,,0.00,meteohub,2013-09-27 00:12:00,
2013-09-26 20:17:00,54.9,49.5,30.12,North,349,3.0,6.0,82,0.00,,,0.00,meteohub,2013-09-27 00:17:00,
2013-09-26 20:22:00,54.7,49.3,30.12,NNW,328,0.0,6.0,82,0.00,,,0.00,meteohub,2013-09-27 00:22:00,
2013-09-26 20:27:00,54.7,49.3,30.12,WNW,300,3.0,6.0,82,0.00,,,0.00,meteohub,2013-09-27 00:27:00,
2013-09-26 20:32:00,54.5,48.7,30.13,NNW,329,0.0,5.0,81,0.00,,,0.00,meteohub,2013-09-27 00:32:00,
2013-09-26 20:37:00,54.3,49.6,30.13,NNW,342,0.0,5.0,84,0.00,,,0.00,meteohub,2013-09-27 00:37:00,
2013-09-26 20:42:00,54.1,49.5,30.13,North,357,2.0,5.0,84,0.00,,,0.00,meteohub,2013-09-27 00:42:00,
2013-09-26 20:47:00,54.0,48.9,30.13,NNW,336,4.0,5.0,83,0.00,,,0.00,meteohub,2013-09-27 00:47:00,
2013-09-26 20:52:00,53.8,49.1,30.13,North,351,4.0,5.0,84,0.00,,,0.00,meteohub,2013-09-27 00:52:00,
2013-09-26 20:57:00,53.8,49.1,30.13,NNW,336,3.0,5.0,84,0.00,,,0.00,meteohub,2013-09-27 00:57:00,
2013-09-26 21:02:00,53.6,48.9,30.13,North,353,0.0,6.0,84,0.00,,,0.00,meteohub,2013-09-27 01:02:00,
2013-09-26 21:07:00,53.4,48.7,30.13,NW,321,0.0,6.0,84,0.00,,,0.00,meteohub,2013-09-27 01:07:00,
2013-09-26 21:12:00,53.2,48.2,30.13,WNW,297,0.0,6.0,83,0.00,,,0.00,meteohub,2013-09-27 01:12:00,
2013-09-26 21:17:00,53.1,48.4,30.13,SSW,205,0.0,5.0,84,0.00,,,0.00,meteohub,2013-09-27 01:17:00,
2013-09-26 21:22:00,52.5,47.8,30.14,SSW,205,0.0,3.0,84,0.00,,,0.00,meteohub,2013-09-27 01:22:00,
2013-09-26 21:27:00,52.2,47.8,30.14,SSW,205,0.0,2.0,85,0.00,,,0.00,meteohub,2013-09-27 01:27:00,
2013-09-26 21:32:00,51.4,47.5,30.14,SSW,205,0.0,1.0,86,0.00,,,0.00,meteohub,2013-09-27 01:32:00,
2013-09-26 21:37:00,51.1,47.3,30.14,SSW,205,0.0,1.0,87,0.00,,,0.00,meteohub,2013-09-27 01:37:00,
2013-09-26 21:42:00,50.9,47.1,30.14,SSW,205,0.0,1.0,87,0.00,,,0.00,meteohub,2013-09-27 01:42:00,
2013-09-26 21:47:00,50.7,47.3,30.14,WSW,247,0.0,0.0,88,0.00,,,0.00,meteohub,2013-09-27 01:47:00,
2013-09-26 21:52:00,50.5,47.1,30.15,WSW,247,0.0,1.0,88,0.00,,,0.00,meteohub,2013-09-27 01:52:00,
2013-09-26 21:57:00,50.2,46.8,30.15,WSW,247,0.0,1.0,88,0.00,,,0.00,meteohub,2013-09-27 01:57:00,
2013-09-26 22:02:00,49.8,46.4,30.15,WSW,247,0.0,1.0,88,0.00,,,0.00,meteohub,2013-09-27 02:02:00,
2013-09-26 22:07:00,49.6,46.6,30.15,WSW,247,0.0,1.0,89,0.00,,,0.00,meteohub,2013-09-27 02:07:00,
2013-09-26 22:12:00,49.5,46.6,30.15,WSW,247,0.0,1.0,90,0.00,,,0.00,meteohub,2013-09-27 02:12:00,
2013-09-26 22:17:00,49.3,46.2,30.15,WSW,247,0.0,1.0,89,0.00,,,0.00,meteohub,2013-09-27 02:17:00,
2013-09-26 22:22:00,49.1,46.2,30.15,WSW,247,0.0,1.0,90,0.00,,,0.00,meteohub,2013-09-27 02:22:00,
2013-09-26 22:27:00,48.9,46.0,30.15,WSW,247,0.0,0.0,90,0.00,,,0.00,meteohub,2013-09-27 02:27:00,
2013-09-26 22:32:00,48.7,45.9,30.15,WSW,247,0.0,0.0,90,0.00,,,0.00,meteohub,2013-09-27 02:32:00,
2013-09-26 22:37:00,48.6,46.0,30.15,WSW,247,0.0,0.0,91,0.00,,,0.00,meteohub,2013-09-27 02:37:00,
2013-09-26 22:42:00,48.4,45.9,30.15,WSW,247,0.0,0.0,91,0.00,,,0.00,meteohub,2013-09-27 02:42:00,
2013-09-26 22:47:00,48.2,46.0,30.15,WSW,247,0.0,0.0,92,0.00,,,0.00,meteohub,2013-09-27 02:47:00,
2013-09-26 22:52:00,48.0,45.9,30.15,WSW,247,0.0,1.0,92,0.00,,,0.00,meteohub,2013-09-27 02:52:00,
2013-09-26 22:57:00,47.8,45.7,30.15,WSW,247,0.0,1.0,92,0.00,,,0.00,meteohub,2013-09-27 02:57:00,
2013-09-26 23:02:00,47.8,45.3,30.15,WSW,247,0.0,1.0,91,0.00,,,0.00,meteohub,2013-09-27 03:02:00,
2013-09-26 23:07:00,47.7,45.5,30.15,WSW,247,0.0,1.0,92,0.00,,,0.00,meteohub,2013-09-27 03:07:00,
2013-09-26 23:12:00,47.5,45.5,30.15,WSW,247,0.0,0.0,93,0.00,,,0.00,meteohub,2013-09-27 03:12:00,
2013-09-26 23:17:00,47.5,45.5,30.15,WSW,247,0.0,1.0,93,0.00,,,0.00,meteohub,2013-09-27 03:17:00,
2013-09-26 23:22:00,47.5,45.5,30.15,WSW,247,0.0,1.0,93,0.00,,,0.00,meteohub,2013-09-27 03:22:00,
2013-09-26 23:27:00,47.1,45.0,30.16,WSW,247,0.0,1.0,92,0.00,,,0.00,meteohub,2013-09-27 03:27:00,
2013-09-26 23:32:00,46.9,44.8,30.16,WSW,247,0.0,1.0,92,0.00,,,0.00,meteohub,2013-09-27 03:32:00,
2013-09-26 23:37:00,46.8,44.8,30.16,WSW,247,0.0,1.0,93,0.00,,,0.00,meteohub,2013-09-27 03:37:00,
2013-09-26 23:42:00,46.8,44.8,30.16,WSW,247,0.0,1.0,93,0.00,,,0.00,meteohub,2013-09-27 03:42:00,
2013-09-26 23:47:00,46.6,44.6,30.16,WSW,247,0.0,0.0,93,0.00,,,0.00,meteohub,2013-09-27 03:47:00,
2013-09-26 23:52:00,46.4,44.4,30.16,WSW,247,0.0,0.0,93,0.00,,,0.00,meteohub,2013-09-27 03:52:00,
2013-09-26 23:57:00,46.4,44.4,30.16,WSW,247,0.0,0.0,93,0.00,,,0.00,meteohub,2013-09-27 03:57:00,